createdAt,value
2023-11-18T00:00:40.167Z,3.96
2023-11-18T00:01:40.189Z,3.96
2023-11-18T00:02:40.368Z,3.99
2023-11-18T00:03:40.175Z,3.99
2023-11-18T00:04:40.153Z,3.99
2023-11-18T00:05:40.085Z,3.99
2023-11-18T00:06:40.090Z,3.99
2023-11-18T00:07:40.095Z,4.02
2023-11-18T00:08:40.033Z,4.01
2023-11-18T00:09:40.035Z,4.01
2023-11-18T00:10:40.129Z,4.01
2023-11-18T00:11:40.023Z,3.98
2023-11-18T00:12:40.022Z,3.94
2023-11-18T00:13:40.140Z,3.87
2023-11-18T00:14:39.974Z,3.84
2023-11-18T00:15:39.969Z,3.83
2023-11-18T00:16:40.284Z,3.78
2023-11-18T00:17:40.033Z,3.81
2023-11-18T00:18:39.926Z,3.80
2023-11-18T00:19:39.937Z,3.78
2023-11-18T00:20:39.906Z,3.77
2023-11-18T00:21:39.880Z,3.74
2023-11-18T00:22:39.950Z,3.74
2023-11-18T00:23:39.866Z,3.76
2023-11-18T00:24:39.859Z,3.73
2023-11-18T00:25:39.874Z,3.69
2023-11-18T00:26:39.817Z,3.70
2023-11-18T00:27:39.864Z,3.69
2023-11-18T00:28:39.885Z,3.68
2023-11-18T00:29:39.772Z,3.69
2023-11-18T00:30:39.772Z,3.69
2023-11-18T00:31:39.983Z,3.70
2023-11-18T00:32:39.966Z,3.70
2023-11-18T00:33:39.794Z,3.73
2023-11-18T00:34:39.762Z,3.74
2023-11-18T00:35:39.691Z,3.74
2023-11-18T00:36:39.684Z,3.70
2023-11-18T00:37:39.851Z,3.73
2023-11-18T00:38:39.656Z,3.74
2023-11-18T00:39:39.645Z,3.73
2023-11-18T00:40:39.682Z,3.73
2023-11-18T00:41:39.612Z,3.69
2023-11-18T00:42:39.674Z,3.69
2023-11-18T00:43:39.617Z,3.73
2023-11-18T00:44:39.565Z,3.73
2023-11-18T00:45:39.572Z,3.73
2023-11-18T00:46:39.632Z,3.74
2023-11-18T00:47:39.617Z,3.76
2023-11-18T00:48:39.512Z,3.76
2023-11-18T00:49:39.542Z,3.76
2023-11-18T00:50:39.486Z,3.78
2023-11-18T00:51:39.497Z,3.78
2023-11-18T00:52:39.683Z,3.81
2023-11-18T00:53:39.441Z,3.83
2023-11-18T00:54:39.444Z,3.83
2023-11-18T00:55:39.464Z,3.84
2023-11-18T00:56:39.410Z,3.86
2023-11-18T00:57:39.476Z,3.87
2023-11-18T00:58:39.430Z,3.88
2023-11-18T00:59:39.377Z,3.91
2023-11-18T01:00:39.360Z,3.94
2023-11-18T01:01:39.444Z,3.95
2023-11-18T01:02:39.395Z,3.98
2023-11-18T01:03:39.359Z,4.01
2023-11-18T01:04:39.349Z,4.01
2023-11-18T01:05:39.291Z,4.02
2023-11-18T01:06:39.280Z,4.02
2023-11-18T01:07:39.313Z,4.02
2023-11-18T01:08:39.265Z,4.05
2023-11-18T01:09:39.271Z,4.06
2023-11-18T01:10:39.262Z,4.05
2023-11-18T01:11:39.210Z,4.05
2023-11-18T01:12:39.192Z,4.04
2023-11-18T01:13:39.225Z,4.06
2023-11-18T01:14:40.229Z,4.06
2023-11-18T01:15:39.195Z,4.08
2023-11-18T01:16:39.140Z,4.04
2023-11-18T01:17:39.164Z,4.04
2023-11-18T01:18:39.203Z,4.01
2023-11-18T01:19:39.251Z,3.95
2023-11-18T01:20:39.123Z,3.98
2023-11-18T01:21:39.108Z,3.94
2023-11-18T01:22:39.100Z,3.95
2023-11-18T01:23:39.047Z,3.96
2023-11-18T01:24:39.066Z,3.96
2023-11-18T01:25:39.028Z,3.94
2023-11-18T01:26:39.034Z,3.92
2023-11-18T01:27:39.047Z,3.94
2023-11-18T01:28:39.016Z,3.95
2023-11-18T01:29:38.969Z,3.96
2023-11-18T01:30:38.972Z,3.96
2023-11-18T01:31:49.883Z,3.99
2023-11-18T01:32:39.018Z,3.98
2023-11-18T01:33:38.931Z,4.02
2023-11-18T01:34:38.914Z,4.02
2023-11-18T01:35:38.887Z,4.02
2023-11-18T01:36:38.882Z,4.01
2023-11-18T01:37:38.899Z,4.01
2023-11-18T01:38:38.917Z,3.98
2023-11-18T01:39:38.836Z,3.99
2023-11-18T01:40:38.854Z,4.01
2023-11-18T01:41:38.826Z,3.96
2023-11-18T01:42:38.789Z,3.98
2023-11-18T01:43:38.805Z,3.99
2023-11-18T01:44:38.803Z,4.01
2023-11-18T01:45:38.819Z,4.02
2023-11-18T01:46:38.782Z,4.05
2023-11-18T01:47:38.789Z,4.06
2023-11-18T01:48:38.719Z,4.06
2023-11-18T01:49:38.726Z,4.06
2023-11-18T01:50:38.735Z,4.06
2023-11-18T01:51:38.675Z,4.10
2023-11-18T01:52:38.695Z,4.12
2023-11-18T01:53:38.659Z,4.12
2023-11-18T01:54:38.628Z,4.12
2023-11-18T01:55:38.703Z,4.12
2023-11-18T01:56:38.646Z,4.13
2023-11-18T01:57:38.635Z,4.14
2023-11-18T01:58:38.610Z,4.13
2023-11-18T01:59:38.580Z,4.12
2023-11-18T02:00:38.562Z,4.10
2023-11-18T02:01:38.622Z,4.08
2023-11-18T02:02:38.692Z,4.08
2023-11-18T02:03:38.589Z,4.08
2023-11-18T02:04:38.730Z,4.06
2023-11-18T02:05:38.492Z,4.06
2023-11-18T02:06:38.478Z,4.05
2023-11-18T02:07:38.760Z,4.06
2023-11-18T02:08:38.482Z,4.06
2023-11-18T02:09:38.431Z,4.06
2023-11-18T02:10:38.514Z,4.04
2023-11-18T02:11:38.413Z,4.02
2023-11-18T02:12:38.391Z,4.02
2023-11-18T02:13:38.422Z,4.04
2023-11-18T02:14:38.429Z,4.04
2023-11-18T02:15:38.369Z,4.04
2023-11-18T02:16:38.388Z,4.02
2023-11-18T02:17:38.385Z,4.01
2023-11-18T02:18:38.387Z,4.02
2023-11-18T02:19:38.351Z,4.01
2023-11-18T02:20:38.378Z,4.01
2023-11-18T02:21:38.281Z,4.01
2023-11-18T02:22:38.305Z,4.01
2023-11-18T02:23:38.258Z,3.99
2023-11-18T02:24:38.242Z,3.99
2023-11-18T02:25:38.249Z,3.99
2023-11-18T02:26:38.232Z,4.01
2023-11-18T02:27:38.207Z,4.01
2023-11-18T02:28:38.240Z,4.02
2023-11-18T02:29:38.296Z,4.04
2023-11-18T02:30:38.158Z,4.05
2023-11-18T02:31:38.140Z,4.05
2023-11-18T02:32:38.400Z,4.06
2023-11-18T02:33:38.216Z,4.08
2023-11-18T02:34:38.132Z,4.06
2023-11-18T02:35:38.087Z,4.05
2023-11-18T02:36:38.082Z,4.04
2023-11-18T02:37:38.080Z,4.02
2023-11-18T02:38:39.692Z,4.01
2023-11-18T02:39:38.082Z,3.99
2023-11-18T02:40:38.077Z,3.98
2023-11-18T02:41:38.044Z,3.99
2023-11-18T02:42:38.009Z,3.98
2023-11-18T02:43:38.005Z,3.99
2023-11-18T02:44:38.000Z,3.96
2023-11-18T02:45:37.956Z,3.99
2023-11-18T02:46:37.988Z,4.01
2023-11-18T02:47:37.981Z,4.01
2023-11-18T02:48:37.920Z,4.02
2023-11-18T02:49:37.931Z,4.05
2023-11-18T02:50:37.954Z,4.08
2023-11-18T02:51:37.867Z,4.08
2023-11-18T02:52:37.904Z,4.10
2023-11-18T02:53:37.877Z,4.13
2023-11-18T02:54:37.833Z,4.13
2023-11-18T02:55:37.864Z,4.13
2023-11-18T02:56:37.842Z,4.14
2023-11-18T02:57:37.991Z,4.14
2023-11-18T02:58:37.830Z,4.16
2023-11-18T02:59:37.811Z,4.16
2023-11-18T03:00:37.785Z,4.16
2023-11-18T03:01:37.850Z,4.17
2023-11-18T03:02:37.799Z,4.19
2023-11-18T03:03:37.771Z,4.22
2023-11-18T03:04:37.788Z,4.20
2023-11-18T03:05:37.779Z,4.22
2023-11-18T03:06:37.696Z,4.20
2023-11-18T03:07:37.679Z,4.22
2023-11-18T03:08:37.695Z,4.23
2023-11-18T03:09:37.639Z,4.23
2023-11-18T03:10:37.633Z,4.26
2023-11-18T03:11:37.617Z,4.26
2023-11-18T03:12:37.604Z,4.26
2023-11-18T03:13:37.615Z,4.24
2023-11-18T03:14:37.603Z,4.23
2023-11-18T03:15:37.570Z,4.23
2023-11-18T03:16:37.626Z,4.22
2023-11-18T03:17:37.562Z,4.22
2023-11-18T03:18:37.530Z,4.22
2023-11-18T03:19:38.030Z,4.22
2023-11-18T03:20:37.531Z,4.23
2023-11-18T03:21:37.498Z,4.22
2023-11-18T03:22:37.522Z,4.20
2023-11-18T03:23:37.454Z,4.20
2023-11-18T03:24:37.434Z,4.23
2023-11-18T03:25:37.467Z,4.22
2023-11-18T03:26:37.432Z,4.22
2023-11-18T03:27:37.383Z,4.24
2023-11-18T03:28:37.408Z,4.24
2023-11-18T03:29:37.375Z,4.23
2023-11-18T03:30:37.352Z,4.23
2023-11-18T03:31:37.352Z,4.23
2023-11-18T03:32:37.483Z,4.19
2023-11-18T03:33:37.371Z,4.19
2023-11-18T03:34:37.365Z,4.17
2023-11-18T03:35:37.330Z,4.19
2023-11-18T03:36:37.281Z,4.20
2023-11-18T03:37:37.336Z,4.17
2023-11-18T03:38:37.254Z,4.20
2023-11-18T03:39:37.249Z,4.19
2023-11-18T03:40:37.321Z,4.17
2023-11-18T03:41:37.227Z,4.17
2023-11-18T03:42:37.206Z,4.17
2023-11-18T03:43:37.245Z,4.14
2023-11-18T03:44:37.172Z,4.12
2023-11-18T03:45:37.181Z,4.08
2023-11-18T03:46:37.225Z,4.06
2023-11-18T03:47:37.149Z,4.05
2023-11-18T03:48:37.131Z,4.01
2023-11-18T03:49:37.189Z,4.01
2023-11-18T03:50:37.080Z,4.01
2023-11-18T03:51:37.073Z,4.01
2023-11-18T03:52:37.105Z,3.98
2023-11-18T03:53:37.051Z,3.99
2023-11-18T03:54:37.045Z,3.96
2023-11-18T03:55:37.066Z,3.94
2023-11-18T03:56:37.019Z,3.96
2023-11-18T03:57:37.024Z,3.98
2023-11-18T03:58:37.005Z,3.98
2023-11-18T03:59:36.961Z,3.98
2023-11-18T04:00:36.959Z,4.01
2023-11-18T04:01:37.042Z,3.99
2023-11-18T04:02:37.189Z,4.01
2023-11-18T04:03:36.934Z,4.01
2023-11-18T04:04:37.007Z,4.02
2023-11-18T04:05:36.883Z,4.02
2023-11-18T04:06:36.907Z,4.02
2023-11-18T04:07:36.888Z,4.01
2023-11-18T04:08:36.838Z,4.01
2023-11-18T04:09:36.843Z,4.01
2023-11-18T04:10:36.869Z,3.99
2023-11-18T04:11:36.822Z,3.98
2023-11-18T04:12:36.867Z,3.99
2023-11-18T04:13:36.791Z,4.01
2023-11-18T04:14:36.768Z,4.02
2023-11-18T04:15:36.764Z,4.04
2023-11-18T04:16:36.792Z,4.04
2023-11-18T04:17:36.874Z,4.04
2023-11-18T04:18:36.773Z,4.04
2023-11-18T04:19:36.757Z,4.04
2023-11-18T04:20:36.686Z,4.05
2023-11-18T04:21:36.692Z,4.05
2023-11-18T04:22:36.720Z,4.05
2023-11-18T04:23:36.667Z,4.06
2023-11-18T04:24:36.653Z,4.06
2023-11-18T04:25:36.665Z,4.08
2023-11-18T04:26:36.596Z,4.12
2023-11-18T04:27:36.586Z,4.12
2023-11-18T04:28:36.628Z,4.14
2023-11-18T04:29:36.583Z,4.17
2023-11-18T04:30:36.631Z,4.17
2023-11-18T04:31:36.558Z,4.13
2023-11-18T04:32:36.553Z,4.06
2023-11-18T04:33:36.576Z,4.05
2023-11-18T04:34:36.530Z,4.05
2023-11-18T04:35:36.492Z,4.02
2023-11-18T04:36:36.523Z,4.01
2023-11-18T04:37:36.663Z,3.99
2023-11-18T04:38:36.487Z,3.99
2023-11-18T04:39:36.447Z,4.02
2023-11-18T04:40:36.574Z,4.04
2023-11-18T04:41:36.452Z,4.04
2023-11-18T04:42:36.440Z,4.02
2023-11-18T04:43:42.714Z,4.02
2023-11-18T04:44:36.373Z,4.02
2023-11-18T04:45:36.461Z,4.02
2023-11-18T04:46:36.342Z,4.04
2023-11-18T04:47:36.457Z,4.02
2023-11-18T04:48:39.939Z,4.01
2023-11-18T04:49:36.369Z,4.01
2023-11-18T04:50:36.321Z,3.99
2023-11-18T04:51:36.268Z,3.99
2023-11-18T04:52:36.469Z,3.98
2023-11-18T04:53:36.267Z,3.96
2023-11-18T04:54:36.274Z,3.96
2023-11-18T04:55:36.251Z,3.95
2023-11-18T04:56:36.215Z,3.95
2023-11-18T04:57:36.183Z,3.95
2023-11-18T04:58:36.257Z,3.95
2023-11-18T04:59:36.195Z,3.95
2023-11-18T05:00:36.172Z,3.96
2023-11-18T05:01:36.233Z,3.99
2023-11-18T05:02:36.178Z,4.01
2023-11-18T05:03:36.167Z,4.02
2023-11-18T05:04:36.135Z,4.02
2023-11-18T05:05:36.121Z,4.02
2023-11-18T05:06:36.104Z,4.05
2023-11-18T05:07:36.930Z,4.05
2023-11-18T05:08:36.151Z,4.02
2023-11-18T05:09:36.930Z,4.01
2023-11-18T05:10:36.936Z,3.98
2023-11-18T05:11:36.037Z,3.94
2023-11-18T05:12:35.987Z,3.92
2023-11-18T05:13:36.017Z,3.92
2023-11-18T05:14:35.970Z,3.92
2023-11-18T05:15:35.959Z,3.92
2023-11-18T05:16:35.979Z,3.94
2023-11-18T05:17:36.033Z,3.94
2023-11-18T05:18:36.056Z,3.96
2023-11-18T05:19:35.946Z,3.95
2023-11-18T05:20:35.890Z,3.94
2023-11-18T05:21:35.907Z,3.94
2023-11-18T05:22:35.904Z,3.92
2023-11-18T05:23:35.892Z,3.92
2023-11-18T05:24:35.877Z,3.92
2023-11-18T05:25:35.843Z,3.91
2023-11-18T05:26:35.810Z,3.91
2023-11-18T05:27:35.801Z,3.91
2023-11-18T05:28:35.980Z,3.86
2023-11-18T05:29:35.803Z,3.84
2023-11-18T05:30:35.772Z,3.84
2023-11-18T05:31:35.891Z,3.81
2023-11-18T05:32:35.784Z,3.83
2023-11-18T05:33:35.827Z,3.80
2023-11-18T05:34:35.765Z,3.80
2023-11-18T05:35:35.691Z,3.78
2023-11-18T05:36:35.664Z,3.80
2023-11-18T05:37:35.688Z,3.80
2023-11-18T05:38:35.654Z,3.81
2023-11-18T05:39:35.648Z,3.81
2023-11-18T05:40:35.718Z,3.86
2023-11-18T05:41:35.608Z,3.87
2023-11-18T05:42:37.903Z,3.88
2023-11-18T05:43:35.623Z,3.91
2023-11-18T05:44:35.558Z,3.91
2023-11-18T05:45:35.565Z,3.92
2023-11-18T05:46:35.656Z,3.94
2023-11-18T05:47:35.597Z,3.94
2023-11-18T05:48:35.536Z,3.94
2023-11-18T05:49:35.560Z,3.92
2023-11-18T05:50:35.550Z,3.92
2023-11-18T05:51:35.548Z,3.91
2023-11-18T05:52:35.518Z,3.88
2023-11-18T05:53:35.453Z,3.87
2023-11-18T05:54:35.456Z,3.86
2023-11-18T05:55:35.450Z,3.86
2023-11-18T05:56:35.421Z,3.86
2023-11-18T05:57:35.538Z,3.84
2023-11-18T05:58:35.433Z,3.81
2023-11-18T05:59:35.407Z,3.83
2023-11-18T06:00:41.147Z,3.84
2023-11-18T06:01:35.426Z,3.83
2023-11-18T06:02:35.409Z,3.83
2023-11-18T06:03:35.485Z,3.81
2023-11-18T06:04:35.324Z,3.77
2023-11-18T06:05:35.298Z,3.74
2023-11-18T06:06:35.282Z,3.73
2023-11-18T06:07:35.360Z,3.73
2023-11-18T06:08:35.317Z,3.70
2023-11-18T06:09:35.235Z,3.74
2023-11-18T06:10:35.236Z,3.70
2023-11-18T06:11:35.221Z,3.70
2023-11-18T06:12:35.218Z,3.70
2023-11-18T06:13:35.191Z,3.70
2023-11-18T06:14:35.245Z,3.69
2023-11-18T06:15:35.168Z,3.69
2023-11-18T06:16:35.270Z,3.68
2023-11-18T06:17:35.225Z,3.69
2023-11-18T06:18:35.145Z,3.70
2023-11-18T06:19:35.174Z,3.70
2023-11-18T06:20:35.127Z,3.70
2023-11-18T06:21:35.107Z,3.74
2023-11-18T06:22:35.116Z,3.74
2023-11-18T06:23:35.075Z,3.76
2023-11-18T06:24:35.034Z,3.74
2023-11-18T06:25:35.037Z,3.74
2023-11-18T06:26:35.032Z,3.74
2023-11-18T06:27:34.997Z,3.74
2023-11-18T06:28:35.101Z,3.74
2023-11-18T06:29:34.976Z,3.70
2023-11-18T06:30:35.012Z,3.70
2023-11-18T06:31:34.981Z,3.70
2023-11-18T06:32:34.986Z,3.70
2023-11-18T06:33:34.926Z,3.70
2023-11-18T06:34:35.097Z,3.69
2023-11-18T06:35:34.883Z,3.70
2023-11-18T06:36:34.891Z,3.69
2023-11-18T06:37:34.878Z,3.70
2023-11-18T06:38:34.879Z,3.70
2023-11-18T06:39:34.847Z,3.73
2023-11-18T06:40:34.840Z,3.76
2023-11-18T06:41:35.347Z,3.76
2023-11-18T06:42:34.792Z,3.76
2023-11-18T06:43:34.885Z,3.78
2023-11-18T06:44:34.770Z,3.80
2023-11-18T06:45:34.768Z,3.83
2023-11-18T06:46:35.039Z,3.84
2023-11-18T06:47:34.844Z,3.86
2023-11-18T06:48:34.749Z,3.88
2023-11-18T06:49:34.725Z,3.88
2023-11-18T06:50:34.697Z,3.87
2023-11-18T06:51:34.672Z,3.86
2023-11-18T06:52:34.663Z,3.84
2023-11-18T06:53:34.670Z,3.83
2023-11-18T06:54:34.655Z,3.83
2023-11-18T06:55:34.654Z,3.83
2023-11-18T06:56:34.614Z,3.83
2023-11-18T06:57:34.602Z,3.83
2023-11-18T06:58:34.587Z,3.81
2023-11-18T06:59:34.570Z,3.83
2023-11-18T07:00:34.598Z,3.83
2023-11-18T07:01:34.570Z,3.78
2023-11-18T07:02:34.581Z,3.78
2023-11-18T07:03:34.688Z,3.80
2023-11-18T07:04:34.498Z,3.78
2023-11-18T07:05:34.508Z,3.77
2023-11-18T07:06:34.487Z,3.77
2023-11-18T07:07:34.500Z,3.76
2023-11-18T07:08:34.469Z,3.78
2023-11-18T07:09:34.449Z,3.78
2023-11-18T07:10:34.428Z,3.83
2023-11-18T07:11:34.423Z,3.84
2023-11-18T07:12:34.401Z,3.86
2023-11-18T07:13:34.413Z,3.87
2023-11-18T07:14:34.410Z,3.91
2023-11-18T07:15:34.361Z,3.92
2023-11-18T07:16:34.350Z,3.92
2023-11-18T07:17:34.354Z,3.94
2023-11-18T07:18:35.160Z,3.94
2023-11-18T07:19:34.390Z,3.96
2023-11-18T07:20:34.305Z,3.96
2023-11-18T07:21:34.300Z,3.98
2023-11-18T07:22:34.275Z,3.99
2023-11-18T07:23:34.243Z,4.01
2023-11-18T07:24:34.277Z,4.01
2023-11-18T07:25:34.222Z,4.02
2023-11-18T07:26:34.223Z,4.02
2023-11-18T07:27:34.194Z,4.04
2023-11-18T07:28:34.179Z,4.05
2023-11-18T07:29:34.193Z,4.04
2023-11-18T07:30:34.184Z,4.04
2023-11-18T07:31:34.173Z,4.01
2023-11-18T07:32:34.168Z,3.99
2023-11-18T07:33:34.128Z,4.01
2023-11-18T07:34:34.121Z,4.02
2023-11-18T07:35:34.125Z,4.02
2023-11-18T07:36:34.097Z,4.05
2023-11-18T07:37:34.108Z,4.06
2023-11-18T07:38:34.059Z,4.10
2023-11-18T07:39:34.057Z,4.13
2023-11-18T07:40:34.069Z,4.13
2023-11-18T07:41:34.494Z,4.14
2023-11-18T07:42:33.999Z,4.16
2023-11-18T07:43:33.989Z,4.17
2023-11-18T07:44:34.980Z,4.20
2023-11-18T07:45:33.996Z,4.19
2023-11-18T07:46:33.970Z,4.20
2023-11-18T07:47:33.980Z,4.24
2023-11-18T07:48:33.948Z,4.26
2023-11-18T07:49:33.922Z,4.28
2023-11-18T07:50:33.893Z,4.28
2023-11-18T07:51:33.883Z,4.30
2023-11-18T07:52:33.905Z,4.28
2023-11-18T07:53:33.879Z,4.28
2023-11-18T07:54:33.904Z,4.26
2023-11-18T07:55:33.866Z,4.24
2023-11-18T07:56:34.475Z,4.26
2023-11-18T07:57:33.850Z,4.28
2023-11-18T07:58:33.799Z,4.30
2023-11-18T07:59:33.761Z,4.31
2023-11-18T08:00:33.746Z,4.30
2023-11-18T08:01:33.782Z,4.31
2023-11-18T08:02:33.822Z,4.28
2023-11-18T08:03:33.803Z,4.30
2023-11-18T08:04:33.735Z,4.30
2023-11-18T08:05:33.704Z,4.26
2023-11-18T08:06:33.690Z,4.30
2023-11-18T08:07:33.680Z,4.30
2023-11-18T08:08:33.664Z,4.30
2023-11-18T08:09:33.664Z,4.30
2023-11-18T08:10:33.630Z,4.28
2023-11-18T08:11:33.629Z,4.28
2023-11-18T08:12:33.597Z,4.30
2023-11-18T08:13:33.603Z,4.31
2023-11-18T08:14:33.594Z,4.31
2023-11-18T08:15:33.598Z,4.34
2023-11-18T08:16:33.606Z,4.37
2023-11-18T08:17:33.654Z,4.38
2023-11-18T08:18:33.517Z,4.41
2023-11-18T08:19:33.498Z,4.42
2023-11-18T08:20:33.505Z,4.44
2023-11-18T08:21:33.463Z,4.42
2023-11-18T08:22:33.476Z,4.44
2023-11-18T08:23:33.446Z,4.45
2023-11-18T08:24:33.427Z,4.44
2023-11-18T08:25:33.924Z,4.45
2023-11-18T08:26:33.404Z,4.49
2023-11-18T08:27:33.408Z,4.49
2023-11-18T08:28:33.386Z,4.52
2023-11-18T08:29:33.433Z,4.52
2023-11-18T08:30:33.376Z,4.56
2023-11-18T08:31:33.415Z,4.58
2023-11-18T08:32:33.469Z,4.58
2023-11-18T08:33:33.344Z,4.60
2023-11-18T08:34:33.334Z,4.60
2023-11-18T08:35:33.292Z,4.62
2023-11-18T08:36:33.269Z,4.66
2023-11-18T08:37:33.279Z,4.66
2023-11-18T08:38:33.244Z,4.70
2023-11-18T08:39:33.250Z,4.68
2023-11-18T08:40:33.226Z,4.71
2023-11-18T08:41:33.237Z,4.71
2023-11-18T08:42:33.232Z,4.73
2023-11-18T08:43:33.598Z,4.71
2023-11-18T08:44:33.179Z,4.66
2023-11-18T08:45:33.216Z,4.62
2023-11-18T08:46:33.219Z,4.63
2023-11-18T08:47:33.309Z,4.63
2023-11-18T08:48:33.172Z,4.63
2023-11-18T08:49:33.095Z,4.66
2023-11-18T08:50:33.509Z,4.67
2023-11-18T08:51:33.154Z,4.68
2023-11-18T08:52:33.073Z,4.70
2023-11-18T08:53:33.105Z,4.73
2023-11-18T08:54:33.069Z,4.74
2023-11-18T08:55:33.034Z,4.75
2023-11-18T08:56:33.017Z,4.77
2023-11-18T08:57:33.093Z,4.78
2023-11-18T08:58:32.974Z,4.78
2023-11-18T08:59:32.971Z,4.80
2023-11-18T09:00:32.998Z,4.84
2023-11-18T09:01:33.065Z,4.87
2023-11-18T09:02:39.031Z,4.89
2023-11-18T09:03:32.984Z,4.90
2023-11-18T09:04:32.945Z,4.90
2023-11-18T09:05:32.908Z,4.92
2023-11-18T09:06:32.936Z,4.92
2023-11-18T09:07:32.861Z,4.93
2023-11-18T09:08:32.847Z,4.96
2023-11-18T09:09:32.850Z,4.96
2023-11-18T09:10:32.865Z,4.94
2023-11-18T09:11:32.925Z,4.97
2023-11-18T09:12:32.807Z,4.97
2023-11-18T09:13:32.912Z,4.94
2023-11-18T09:14:32.856Z,4.89
2023-11-18T09:15:32.751Z,4.84
2023-11-18T09:16:32.742Z,4.78
2023-11-18T09:17:32.895Z,4.75
2023-11-18T09:18:32.835Z,4.75
2023-11-18T09:19:32.737Z,4.78
2023-11-18T09:20:32.672Z,4.78
2023-11-18T09:21:32.689Z,4.82
2023-11-18T09:22:32.663Z,4.82
2023-11-18T09:23:32.684Z,4.84
2023-11-18T09:24:35.295Z,4.86
2023-11-18T09:25:32.708Z,4.87
2023-11-18T09:26:32.617Z,4.89
2023-11-18T09:27:32.627Z,4.89
2023-11-18T09:28:32.581Z,4.89
2023-11-18T09:29:32.584Z,4.89
2023-11-18T09:30:32.553Z,4.89
2023-11-18T09:31:32.562Z,4.89
2023-11-18T09:32:32.670Z,4.86
2023-11-18T09:33:32.568Z,4.77
2023-11-18T09:34:32.492Z,4.77
2023-11-18T09:35:32.525Z,4.77
2023-11-18T09:36:32.466Z,4.75
2023-11-18T09:37:32.454Z,4.73
2023-11-18T09:38:32.545Z,4.66
2023-11-18T09:39:32.430Z,4.67
2023-11-18T09:40:32.429Z,4.60
2023-11-18T09:41:32.440Z,4.53
2023-11-18T09:42:32.387Z,4.55
2023-11-18T09:43:32.374Z,4.58
2023-11-18T09:44:32.357Z,4.62
2023-11-18T09:45:32.383Z,4.62
2023-11-18T09:46:33.297Z,4.60
2023-11-18T09:47:32.425Z,4.62
2023-11-18T09:48:32.314Z,4.60
2023-11-18T09:49:32.302Z,4.60
2023-11-18T09:50:32.374Z,4.60
2023-11-18T09:51:32.279Z,4.63
2023-11-18T09:52:32.264Z,4.66
2023-11-18T09:53:32.298Z,4.66
2023-11-18T09:54:32.226Z,4.63
2023-11-18T09:55:32.212Z,4.66
2023-11-18T09:56:32.200Z,4.68
2023-11-18T09:57:32.202Z,4.70
2023-11-18T09:58:32.184Z,4.71
2023-11-18T09:59:32.189Z,4.73
2023-11-18T10:00:32.163Z,4.75
2023-11-18T10:01:32.139Z,4.78
2023-11-18T10:02:32.259Z,4.82
2023-11-18T10:03:32.180Z,4.86
2023-11-18T10:04:32.130Z,4.90
2023-11-18T10:05:32.207Z,4.90
2023-11-18T10:06:32.057Z,4.93
2023-11-18T10:07:32.059Z,4.90
2023-11-18T10:08:32.044Z,4.89
2023-11-18T10:09:32.055Z,4.89
2023-11-18T10:10:32.031Z,4.89
2023-11-18T10:11:32.006Z,4.89
2023-11-18T10:12:32.007Z,4.93
2023-11-18T10:13:31.971Z,4.93
2023-11-18T10:14:31.957Z,4.96
2023-11-18T10:15:31.967Z,4.99
2023-11-18T10:16:31.936Z,5.05
2023-11-18T10:17:32.017Z,5.07
2023-11-18T10:18:31.985Z,5.07
2023-11-18T10:19:31.901Z,5.14
2023-11-18T10:20:31.902Z,5.23
2023-11-18T10:21:31.874Z,5.48
2023-11-18T10:22:31.857Z,5.69
2023-11-18T10:23:31.862Z,5.89
2023-11-18T10:24:31.851Z,6.16
2023-11-18T10:25:31.814Z,6.45
2023-11-18T10:26:31.818Z,6.72
2023-11-18T10:27:31.782Z,6.97
2023-11-18T10:28:31.776Z,7.18
2023-11-18T10:29:31.767Z,7.32
2023-11-18T10:30:31.738Z,7.36
2023-11-18T10:31:31.730Z,7.50
2023-11-18T10:32:31.979Z,7.66
2023-11-18T10:33:32.229Z,7.75
2023-11-18T10:34:31.685Z,7.88
2023-11-18T10:35:31.710Z,7.95
2023-11-18T10:36:31.669Z,8.09
2023-11-18T10:37:31.783Z,8.23
2023-11-18T10:38:31.657Z,8.36
2023-11-18T10:39:31.648Z,8.51
2023-11-18T10:40:31.609Z,8.60
2023-11-18T10:41:31.663Z,8.63
2023-11-18T10:42:31.711Z,8.76
2023-11-18T10:43:31.566Z,8.88
2023-11-18T10:44:31.616Z,8.92
2023-11-18T10:45:31.560Z,9.00
2023-11-18T10:46:31.638Z,9.08
2023-11-18T10:47:31.589Z,9.19
2023-11-18T10:48:31.507Z,9.32
2023-11-18T10:49:31.484Z,9.44
2023-11-18T10:50:31.538Z,9.62
2023-11-18T10:51:31.466Z,9.80
2023-11-18T10:52:31.446Z,9.98
2023-11-18T10:53:31.436Z,10.12
2023-11-18T10:54:31.419Z,10.25
2023-11-18T10:55:31.401Z,10.41
2023-11-18T10:56:31.428Z,10.57
2023-11-18T10:57:31.512Z,10.71
2023-11-18T10:58:31.372Z,10.82
2023-11-18T10:59:31.346Z,10.87
2023-11-18T11:00:31.347Z,10.97
2023-11-18T11:01:31.389Z,11.10
2023-11-18T11:02:31.416Z,11.23
2023-11-18T11:03:31.362Z,11.37
2023-11-18T11:04:31.291Z,11.47
2023-11-18T11:05:31.337Z,11.50
2023-11-18T11:06:31.337Z,11.47
2023-11-18T11:07:31.282Z,11.36
2023-11-18T11:08:39.154Z,11.48
2023-11-18T11:09:31.225Z,11.40
2023-11-18T11:10:31.213Z,11.43
2023-11-18T11:11:31.236Z,11.25
2023-11-18T11:12:31.216Z,10.99
2023-11-18T11:13:31.167Z,10.78
2023-11-18T11:14:31.153Z,10.57
2023-11-18T11:15:33.983Z,10.56
2023-11-18T11:16:31.153Z,10.68
2023-11-18T11:17:31.742Z,10.74
2023-11-18T11:18:31.141Z,10.72
2023-11-18T11:19:31.087Z,10.56
2023-11-18T11:20:31.316Z,10.44
2023-11-18T11:21:31.086Z,10.56
2023-11-18T11:22:31.036Z,10.78
2023-11-18T11:23:31.132Z,10.97
2023-11-18T11:24:31.018Z,11.12
2023-11-18T11:25:30.996Z,11.27
2023-11-18T11:26:31.199Z,11.37
2023-11-18T11:27:30.961Z,11.37
2023-11-18T11:28:31.037Z,11.26
2023-11-18T11:29:30.993Z,11.17
2023-11-18T11:30:30.938Z,11.00
2023-11-18T11:31:31.132Z,10.84
2023-11-18T11:32:30.915Z,10.72
2023-11-18T11:33:30.999Z,10.67
2023-11-18T11:34:30.928Z,10.74
2023-11-18T11:35:30.910Z,10.82
2023-11-18T11:36:30.851Z,10.96
2023-11-18T11:37:30.828Z,11.02
2023-11-18T11:38:30.830Z,11.10
2023-11-18T11:39:30.850Z,11.15
2023-11-18T11:40:30.839Z,11.14
2023-11-18T11:41:30.779Z,11.26
2023-11-18T11:42:30.776Z,11.41
2023-11-18T11:43:30.749Z,11.55
2023-11-18T11:44:31.563Z,11.73
2023-11-18T11:45:30.775Z,11.68
2023-11-18T11:46:30.820Z,11.69
2023-11-18T11:47:30.827Z,11.48
2023-11-18T11:48:30.717Z,11.47
2023-11-18T11:49:30.681Z,11.44
2023-11-18T11:50:30.740Z,11.26
2023-11-18T11:51:30.650Z,11.29
2023-11-18T11:52:30.633Z,11.41
2023-11-18T11:53:30.666Z,11.51
2023-11-18T11:54:30.638Z,11.57
2023-11-18T11:55:30.611Z,11.51
2023-11-18T11:56:30.596Z,11.55
2023-11-18T11:57:34.067Z,11.62
2023-11-18T11:58:30.555Z,11.68
2023-11-18T11:59:30.573Z,11.55
2023-11-18T12:00:30.505Z,11.44
2023-11-18T12:01:30.581Z,11.32
2023-11-18T12:02:30.887Z,11.30
2023-11-18T12:03:30.512Z,11.43
2023-11-18T12:04:30.534Z,11.40
2023-11-18T12:05:30.508Z,11.45
2023-11-18T12:06:30.446Z,11.65
2023-11-18T12:07:30.449Z,11.83
2023-11-18T12:08:30.429Z,11.99
2023-11-18T12:09:30.398Z,12.09
2023-11-18T12:10:30.408Z,12.15
2023-11-18T12:11:30.368Z,12.25
2023-11-18T12:12:30.399Z,12.37
2023-11-18T12:13:30.345Z,12.39
2023-11-18T12:14:30.382Z,12.42
2023-11-18T12:15:30.350Z,12.45
2023-11-18T12:16:30.327Z,12.37
2023-11-18T12:17:30.459Z,12.42
2023-11-18T12:18:30.310Z,12.40
2023-11-18T12:19:30.304Z,12.43
2023-11-18T12:20:30.255Z,12.45
2023-11-18T12:21:30.332Z,12.45
2023-11-18T12:22:30.220Z,12.40
2023-11-18T12:23:30.292Z,12.46
2023-11-18T12:24:30.205Z,12.45
2023-11-18T12:25:30.165Z,12.28
2023-11-18T12:26:30.217Z,12.04
2023-11-18T12:27:30.147Z,11.86
2023-11-18T12:28:30.157Z,11.88
2023-11-18T12:29:30.114Z,11.95
2023-11-18T12:30:30.106Z,11.83
2023-11-18T12:31:30.201Z,11.87
2023-11-18T12:32:30.108Z,11.94
2023-11-18T12:33:30.481Z,12.00
2023-11-18T12:34:30.056Z,11.94
2023-11-18T12:35:30.092Z,11.86
2023-11-18T12:36:30.043Z,11.88
2023-11-18T12:37:30.022Z,11.90
2023-11-18T12:38:30.103Z,11.78
2023-11-18T12:39:29.988Z,11.80
2023-11-18T12:40:29.978Z,11.69
2023-11-18T12:41:30.032Z,11.69
2023-11-18T12:42:29.945Z,11.60
2023-11-18T12:43:29.967Z,11.50
2023-11-18T12:44:29.967Z,11.47
2023-11-18T12:45:29.917Z,11.27
2023-11-18T12:46:29.931Z,11.14
2023-11-18T12:47:30.186Z,11.10
2023-11-18T12:48:29.869Z,10.87
2023-11-18T12:49:29.889Z,10.76
2023-11-18T12:50:30.062Z,10.78
2023-11-18T12:51:29.854Z,10.63
2023-11-18T12:52:29.803Z,10.64
2023-11-18T12:53:29.883Z,10.40
2023-11-18T12:54:29.795Z,10.22
2023-11-18T12:55:29.810Z,10.22
2023-11-18T12:56:29.928Z,10.07
2023-11-18T12:57:29.732Z,10.05
2023-11-18T12:58:29.719Z,10.07
2023-11-18T12:59:29.780Z,9.83
2023-11-18T13:00:29.734Z,9.87
2023-11-18T13:01:29.731Z,9.86
2023-11-18T13:02:30.112Z,9.86
2023-11-18T13:03:29.782Z,9.86
2023-11-18T13:04:29.682Z,9.94
2023-11-18T13:05:29.766Z,9.99
2023-11-18T13:06:29.868Z,10.07
2023-11-18T13:07:29.650Z,10.16
2023-11-18T13:08:29.625Z,10.20
2023-11-18T13:09:29.636Z,10.16
2023-11-18T13:10:29.576Z,10.20
2023-11-18T13:11:29.605Z,10.07
2023-11-18T13:12:29.545Z,10.07
2023-11-18T13:13:29.521Z,10.01
2023-11-18T13:14:29.569Z,9.94